sensor_id;sensor_type;location;lat;lon;timestamp;P1;durP1;ratioP1;P2;durP2;ratioP2
46551;SDS011;32278;51.810;4.712;2022-09-01T00:00:43;3.30;;;1.30;;
46551;SDS011;32278;51.810;4.712;2022-09-01T00:03:13;2.35;;;1.27;;
46551;SDS011;32278;51.810;4.712;2022-09-01T00:05:40;1.27;;;1.10;;
46551;SDS011;32278;51.810;4.712;2022-09-01T00:08:06;1.05;;;1.05;;
46551;SDS011;32278;51.810;4.712;2022-09-01T00:10:32;1.02;;;1.00;;
46551;SDS011;32278;51.810;4.712;2022-09-01T00:12:58;1.15;;;1.05;;
46551;SDS011;32278;51.810;4.712;2022-09-01T00:15:23;3.85;;;1.38;;
46551;SDS011;32278;51.810;4.712;2022-09-01T00:17:49;1.67;;;0.90;;
46551;SDS011;32278;51.810;4.712;2022-09-01T00:20:15;3.28;;;1.17;;
46551;SDS011;32278;51.810;4.712;2022-09-01T00:22:40;3.35;;;1.15;;
46551;SDS011;32278;51.810;4.712;2022-09-01T00:25:06;1.38;;;1.13;;
46551;SDS011;32278;51.810;4.712;2022-09-01T00:27:33;3.45;;;1.20;;
46551;SDS011;32278;51.810;4.712;2022-09-01T00:29:58;1.30;;;1.17;;
46551;SDS011;32278;51.810;4.712;2022-09-01T00:32:24;1.33;;;1.10;;
46551;SDS011;32278;51.810;4.712;2022-09-01T00:34:51;2.45;;;1.10;;
46551;SDS011;32278;51.810;4.712;2022-09-01T00:37:16;1.73;;;1.00;;
46551;SDS011;32278;51.810;4.712;2022-09-01T00:39:42;2.03;;;1.30;;
46551;SDS011;32278;51.810;4.712;2022-09-01T00:42:07;3.58;;;1.38;;
46551;SDS011;32278;51.810;4.712;2022-09-01T00:44:34;1.33;;;1.05;;
46551;SDS011;32278;51.810;4.712;2022-09-01T00:47:00;1.50;;;1.40;;
46551;SDS011;32278;51.810;4.712;2022-09-01T00:49:31;4.45;;;1.45;;
46551;SDS011;32278;51.810;4.712;2022-09-01T00:52:03;1.35;;;1.13;;
46551;SDS011;32278;51.810;4.712;2022-09-01T00:54:51;5.87;;;1.40;;
46551;SDS011;32278;51.810;4.712;2022-09-01T00:57:22;1.20;;;1.10;;
46551;SDS011;32278;51.810;4.712;2022-09-01T00:59:49;1.42;;;1.15;;
46551;SDS011;32278;51.810;4.712;2022-09-01T01:02:24;2.67;;;1.60;;
46551;SDS011;32278;51.810;4.712;2022-09-01T01:04:50;1.38;;;1.27;;
46551;SDS011;32278;51.810;4.712;2022-09-01T01:07:16;3.70;;;1.40;;
46551;SDS011;32278;51.810;4.712;2022-09-01T01:09:46;2.42;;;1.50;;
46551;SDS011;32278;51.810;4.712;2022-09-01T01:12:13;3.78;;;1.60;;
46551;SDS011;32278;51.810;4.712;2022-09-01T01:14:41;3.03;;;1.50;;
46551;SDS011;32278;51.810;4.712;2022-09-01T01:17:14;4.43;;;1.40;;
46551;SDS011;32278;51.810;4.712;2022-09-01T01:19:50;11.07;;;1.83;;
46551;SDS011;32278;51.810;4.712;2022-09-01T01:22:54;1.42;;;1.10;;
46551;SDS011;32278;51.810;4.712;2022-09-01T01:30:38;4.82;;;1.63;;
46551;SDS011;32278;51.810;4.712;2022-09-01T01:33:07;1.88;;;1.25;;
46551;SDS011;32278;51.810;4.712;2022-09-01T01:35:33;1.98;;;1.60;;
46551;SDS011;32278;51.810;4.712;2022-09-01T01:37:59;4.65;;;1.42;;
46551;SDS011;32278;51.810;4.712;2022-09-01T01:40:29;1.50;;;1.27;;
46551;SDS011;32278;51.810;4.712;2022-09-01T01:42:55;3.25;;;1.42;;
46551;SDS011;32278;51.810;4.712;2022-09-01T01:45:21;1.90;;;1.60;;
46551;SDS011;32278;51.810;4.712;2022-09-01T01:47:49;3.30;;;1.58;;
46551;SDS011;32278;51.810;4.712;2022-09-01T01:50:27;2.65;;;1.67;;
46551;SDS011;32278;51.810;4.712;2022-09-01T01:52:57;2.08;;;1.88;;
46551;SDS011;32278;51.810;4.712;2022-09-01T01:55:24;2.42;;;1.98;;
46551;SDS011;32278;51.810;4.712;2022-09-01T01:57:52;4.15;;;1.95;;
46551;SDS011;32278;51.810;4.712;2022-09-01T02:00:20;2.10;;;1.60;;
46551;SDS011;32278;51.810;4.712;2022-09-01T02:02:49;4.80;;;1.60;;
46551;SDS011;32278;51.810;4.712;2022-09-01T02:05:21;1.40;;;1.30;;
46551;SDS011;32278;51.810;4.712;2022-09-01T02:07:54;2.67;;;1.55;;
46551;SDS011;32278;51.810;4.712;2022-09-01T02:10:27;2.65;;;1.67;;
46551;SDS011;32278;51.810;4.712;2022-09-01T02:12:56;1.67;;;1.58;;
46551;SDS011;32278;51.810;4.712;2022-09-01T02:15:39;2.13;;;1.52;;
46551;SDS011;32278;51.810;4.712;2022-09-01T02:18:32;1.88;;;1.67;;
46551;SDS011;32278;51.810;4.712;2022-09-01T02:21:00;5.20;;;1.85;;
46551;SDS011;32278;51.810;4.712;2022-09-01T02:23:32;2.75;;;1.60;;
46551;SDS011;32278;51.810;4.712;2022-09-01T02:25:58;2.00;;;1.80;;
46551;SDS011;32278;51.810;4.712;2022-09-01T02:28:27;8.18;;;1.85;;
46551;SDS011;32278;51.810;4.712;2022-09-01T02:30:56;3.45;;;1.75;;
46551;SDS011;32278;51.810;4.712;2022-09-01T02:33:23;5.03;;;1.70;;
46551;SDS011;32278;51.810;4.712;2022-09-01T02:35:52;3.05;;;1.80;;
46551;SDS011;32278;51.810;4.712;2022-09-01T02:38:20;2.00;;;1.77;;
46551;SDS011;32278;51.810;4.712;2022-09-01T02:40:47;10.50;;;1.75;;
46551;SDS011;32278;51.810;4.712;2022-09-01T02:43:14;2.25;;;1.75;;
46551;SDS011;32278;51.810;4.712;2022-09-01T02:45:44;1.83;;;1.50;;
46551;SDS011;32278;51.810;4.712;2022-09-01T02:48:23;4.55;;;1.90;;
46551;SDS011;32278;51.810;4.712;2022-09-01T02:50:50;2.00;;;1.80;;
46551;SDS011;32278;51.810;4.712;2022-09-01T02:53:16;3.83;;;1.92;;
46551;SDS011;32278;51.810;4.712;2022-09-01T02:55:42;2.35;;;1.77;;
46551;SDS011;32278;51.810;4.712;2022-09-01T02:58:08;4.38;;;1.77;;
46551;SDS011;32278;51.810;4.712;2022-09-01T03:00:42;4.65;;;1.63;;
46551;SDS011;32278;51.810;4.712;2022-09-01T03:03:08;2.53;;;1.67;;
46551;SDS011;32278;51.810;4.712;2022-09-01T03:05:41;3.03;;;1.90;;
46551;SDS011;32278;51.810;4.712;2022-09-01T03:08:08;3.53;;;2.00;;
46551;SDS011;32278;51.810;4.712;2022-09-01T03:10:38;3.72;;;1.67;;
46551;SDS011;32278;51.810;4.712;2022-09-01T03:13:07;5.30;;;2.38;;
46551;SDS011;32278;51.810;4.712;2022-09-01T03:15:35;2.88;;;2.00;;
46551;SDS011;32278;51.810;4.712;2022-09-01T03:18:02;3.70;;;1.80;;
46551;SDS011;32278;51.810;4.712;2022-09-01T03:20:29;5.15;;;2.20;;
46551;SDS011;32278;51.810;4.712;2022-09-01T03:22:58;2.97;;;1.83;;
46551;SDS011;32278;51.810;4.712;2022-09-01T03:25:28;2.50;;;1.70;;
46551;SDS011;32278;51.810;4.712;2022-09-01T03:27:54;2.45;;;2.10;;
46551;SDS011;32278;51.810;4.712;2022-09-01T03:30:25;2.90;;;1.90;;
46551;SDS011;32278;51.810;4.712;2022-09-01T03:32:55;5.55;;;2.28;;
46551;SDS011;32278;51.810;4.712;2022-09-01T03:35:22;2.35;;;1.90;;
46551;SDS011;32278;51.810;4.712;2022-09-01T03:37:49;4.53;;;1.90;;
46551;SDS011;32278;51.810;4.712;2022-09-01T03:40:15;2.55;;;2.13;;
46551;SDS011;32278;51.810;4.712;2022-09-01T03:42:42;4.78;;;2.00;;
46551;SDS011;32278;51.810;4.712;2022-09-01T03:45:08;6.90;;;2.15;;
46551;SDS011;32278;51.810;4.712;2022-09-01T03:47:40;4.97;;;1.95;;
46551;SDS011;32278;51.810;4.712;2022-09-01T03:50:08;2.53;;;1.80;;
46551;SDS011;32278;51.810;4.712;2022-09-01T03:52:49;5.68;;;2.25;;
46551;SDS011;32278;51.810;4.712;2022-09-01T03:55:18;4.55;;;2.20;;
46551;SDS011;32278;51.810;4.712;2022-09-01T03:57:48;3.33;;;2.03;;
46551;SDS011;32278;51.810;4.712;2022-09-01T04:00:15;3.35;;;1.67;;
46551;SDS011;32278;51.810;4.712;2022-09-01T04:02:44;1.63;;;1.52;;
46551;SDS011;32278;51.810;4.712;2022-09-01T04:05:12;4.45;;;1.77;;
46551;SDS011;32278;51.810;4.712;2022-09-01T04:07:38;2.95;;;1.85;;
46551;SDS011;32278;51.810;4.712;2022-09-01T04:10:04;4.55;;;2.10;;
46551;SDS011;32278;51.810;4.712;2022-09-01T04:12:30;5.85;;;2.10;;
46551;SDS011;32278;51.810;4.712;2022-09-01T04:14:55;4.30;;;1.85;;
46551;SDS011;32278;51.810;4.712;2022-09-01T04:17:21;3.05;;;2.10;;
46551;SDS011;32278;51.810;4.712;2022-09-01T04:20:06;2.25;;;2.03;;
46551;SDS011;32278;51.810;4.712;2022-09-01T04:22:33;2.45;;;1.52;;
46551;SDS011;32278;51.810;4.712;2022-09-01T04:25:02;1.90;;;1.80;;
46551;SDS011;32278;51.810;4.712;2022-09-01T04:27:29;3.83;;;1.77;;
46551;SDS011;32278;51.810;4.712;2022-09-01T04:29:54;6.72;;;2.17;;
46551;SDS011;32278;51.810;4.712;2022-09-01T04:32:21;2.97;;;1.77;;
46551;SDS011;32278;51.810;4.712;2022-09-01T04:34:48;4.07;;;2.35;;
46551;SDS011;32278;51.810;4.712;2022-09-01T04:37:17;3.17;;;2.47;;
46551;SDS011;32278;51.810;4.712;2022-09-01T04:39:49;5.10;;;2.03;;
46551;SDS011;32278;51.810;4.712;2022-09-01T04:42:16;5.85;;;2.05;;
46551;SDS011;32278;51.810;4.712;2022-09-01T04:44:43;3.25;;;1.80;;
46551;SDS011;32278;51.810;4.712;2022-09-01T04:47:10;3.42;;;2.03;;
46551;SDS011;32278;51.810;4.712;2022-09-01T04:49:41;3.00;;;1.67;;
46551;SDS011;32278;51.810;4.712;2022-09-01T04:52:09;4.95;;;2.10;;
46551;SDS011;32278;51.810;4.712;2022-09-01T04:54:36;2.88;;;2.25;;
46551;SDS011;32278;51.810;4.712;2022-09-01T04:57:02;3.20;;;2.13;;
46551;SDS011;32278;51.810;4.712;2022-09-01T04:59:30;4.82;;;1.90;;
46551;SDS011;32278;51.810;4.712;2022-09-01T05:01:57;2.75;;;2.13;;
46551;SDS011;32278;51.810;4.712;2022-09-01T05:04:25;4.32;;;1.98;;
46551;SDS011;32278;51.810;4.712;2022-09-01T05:06:53;3.25;;;2.47;;
46551;SDS011;32278;51.810;4.712;2022-09-01T05:09:29;2.70;;;1.88;;
46551;SDS011;32278;51.810;4.712;2022-09-01T05:12:00;3.03;;;1.90;;
46551;SDS011;32278;51.810;4.712;2022-09-01T05:14:44;3.30;;;2.05;;
46551;SDS011;32278;51.810;4.712;2022-09-01T05:17:12;2.85;;;1.90;;
46551;SDS011;32278;51.810;4.712;2022-09-01T05:19:39;4.03;;;2.08;;
46551;SDS011;32278;51.810;4.712;2022-09-01T05:22:07;5.35;;;2.40;;
46551;SDS011;32278;51.810;4.712;2022-09-01T05:24:34;4.25;;;1.90;;
46551;SDS011;32278;51.810;4.712;2022-09-01T05:27:00;7.40;;;2.22;;
46551;SDS011;32278;51.810;4.712;2022-09-01T05:29:28;3.40;;;1.90;;
46551;SDS011;32278;51.810;4.712;2022-09-01T05:31:54;5.28;;;2.65;;
46551;SDS011;32278;51.810;4.712;2022-09-01T05:34:21;4.40;;;2.35;;
46551;SDS011;32278;51.810;4.712;2022-09-01T05:36:50;3.38;;;2.45;;
46551;SDS011;32278;51.810;4.712;2022-09-01T05:39:17;5.93;;;2.30;;
46551;SDS011;32278;51.810;4.712;2022-09-01T05:41:43;7.38;;;2.03;;
46551;SDS011;32278;51.810;4.712;2022-09-01T05:44:10;4.88;;;2.28;;
46551;SDS011;32278;51.810;4.712;2022-09-01T05:46:37;5.60;;;2.33;;
46551;SDS011;32278;51.810;4.712;2022-09-01T05:49:04;8.18;;;3.13;;
46551;SDS011;32278;51.810;4.712;2022-09-01T05:51:32;3.97;;;2.20;;
46551;SDS011;32278;51.810;4.712;2022-09-01T05:54:01;4.30;;;1.88;;
46551;SDS011;32278;51.810;4.712;2022-09-01T05:56:28;11.90;;;2.17;;
46551;SDS011;32278;51.810;4.712;2022-09-01T05:58:55;4.68;;;2.50;;
46551;SDS011;32278;51.810;4.712;2022-09-01T06:01:23;2.58;;;2.00;;
46551;SDS011;32278;51.810;4.712;2022-09-01T06:03:54;5.05;;;1.95;;
46551;SDS011;32278;51.810;4.712;2022-09-01T06:06:22;5.75;;;2.45;;
46551;SDS011;32278;51.810;4.712;2022-09-01T06:08:49;3.78;;;1.90;;
46551;SDS011;32278;51.810;4.712;2022-09-01T06:11:15;4.50;;;2.08;;
46551;SDS011;32278;51.810;4.712;2022-09-01T06:13:42;4.10;;;2.42;;
46551;SDS011;32278;51.810;4.712;2022-09-01T06:16:11;5.20;;;2.22;;
46551;SDS011;32278;51.810;4.712;2022-09-01T06:18:43;3.33;;;1.92;;
46551;SDS011;32278;51.810;4.712;2022-09-01T06:21:10;7.63;;;2.28;;
46551;SDS011;32278;51.810;4.712;2022-09-01T06:23:39;2.88;;;1.95;;
46551;SDS011;32278;51.810;4.712;2022-09-01T06:26:15;2.28;;;1.70;;
46551;SDS011;32278;51.810;4.712;2022-09-01T06:28:45;3.67;;;1.88;;
46551;SDS011;32278;51.810;4.712;2022-09-01T06:31:12;3.78;;;2.17;;
46551;SDS011;32278;51.810;4.712;2022-09-01T06:33:38;6.53;;;1.98;;
46551;SDS011;32278;51.810;4.712;2022-09-01T06:36:05;2.03;;;1.83;;
46551;SDS011;32278;51.810;4.712;2022-09-01T06:38:33;3.70;;;1.88;;
46551;SDS011;32278;51.810;4.712;2022-09-01T06:41:03;6.13;;;2.20;;
46551;SDS011;32278;51.810;4.712;2022-09-01T06:43:36;3.92;;;2.17;;
46551;SDS011;32278;51.810;4.712;2022-09-01T06:46:06;3.88;;;2.53;;
46551;SDS011;32278;51.810;4.712;2022-09-01T06:48:33;4.65;;;2.05;;
46551;SDS011;32278;51.810;4.712;2022-09-01T06:51:00;4.22;;;2.47;;
46551;SDS011;32278;51.810;4.712;2022-09-01T06:53:29;5.00;;;2.38;;
46551;SDS011;32278;51.810;4.712;2022-09-01T06:55:56;6.30;;;2.20;;
46551;SDS011;32278;51.810;4.712;2022-09-01T06:58:22;6.80;;;1.90;;
46551;SDS011;32278;51.810;4.712;2022-09-01T07:00:48;3.90;;;2.10;;
46551;SDS011;32278;51.810;4.712;2022-09-01T07:03:14;4.25;;;1.98;;
46551;SDS011;32278;51.810;4.712;2022-09-01T07:05:40;6.03;;;2.38;;
46551;SDS011;32278;51.810;4.712;2022-09-01T07:08:08;8.43;;;2.08;;
46551;SDS011;32278;51.810;4.712;2022-09-01T07:10:41;4.75;;;2.17;;
46551;SDS011;32278;51.810;4.712;2022-09-01T07:13:09;3.90;;;2.42;;
46551;SDS011;32278;51.810;4.712;2022-09-01T07:15:43;4.75;;;2.08;;
46551;SDS011;32278;51.810;4.712;2022-09-01T07:18:09;4.80;;;2.17;;
46551;SDS011;32278;51.810;4.712;2022-09-01T07:20:36;6.50;;;2.08;;
46551;SDS011;32278;51.810;4.712;2022-09-01T07:23:06;5.20;;;1.85;;
46551;SDS011;32278;51.810;4.712;2022-09-01T07:25:32;3.78;;;1.80;;
46551;SDS011;32278;51.810;4.712;2022-09-01T07:27:58;4.78;;;2.22;;
46551;SDS011;32278;51.810;4.712;2022-09-01T07:30:25;2.17;;;1.35;;
46551;SDS011;32278;51.810;4.712;2022-09-01T07:32:51;6.18;;;2.15;;
46551;SDS011;32278;51.810;4.712;2022-09-01T07:35:18;9.27;;;2.30;;
46551;SDS011;32278;51.810;4.712;2022-09-01T07:37:46;3.75;;;2.05;;
46551;SDS011;32278;51.810;4.712;2022-09-01T07:40:13;5.88;;;2.05;;
46551;SDS011;32278;51.810;4.712;2022-09-01T07:42:43;5.45;;;2.22;;
46551;SDS011;32278;51.810;4.712;2022-09-01T07:45:11;3.60;;;2.30;;
46551;SDS011;32278;51.810;4.712;2022-09-01T07:47:39;5.25;;;2.20;;
46551;SDS011;32278;51.810;4.712;2022-09-01T07:50:05;7.15;;;1.95;;
46551;SDS011;32278;51.810;4.712;2022-09-01T07:52:36;3.90;;;2.22;;
46551;SDS011;32278;51.810;4.712;2022-09-01T07:55:07;5.07;;;2.17;;
46551;SDS011;32278;51.810;4.712;2022-09-01T07:57:35;3.67;;;1.83;;
46551;SDS011;32278;51.810;4.712;2022-09-01T08:00:03;4.70;;;1.95;;
46551;SDS011;32278;51.810;4.712;2022-09-01T08:02:29;4.97;;;2.05;;
46551;SDS011;32278;51.810;4.712;2022-09-01T08:04:56;5.05;;;2.40;;
46551;SDS011;32278;51.810;4.712;2022-09-01T08:07:23;8.27;;;2.08;;
46551;SDS011;32278;51.810;4.712;2022-09-01T08:09:48;4.35;;;1.80;;
46551;SDS011;32278;51.810;4.712;2022-09-01T08:12:14;3.50;;;1.67;;
46551;SDS011;32278;51.810;4.712;2022-09-01T08:14:40;2.00;;;1.77;;
46551;SDS011;32278;51.810;4.712;2022-09-01T08:17:05;5.07;;;2.15;;
46551;SDS011;32278;51.810;4.712;2022-09-01T08:19:31;4.60;;;2.40;;
46551;SDS011;32278;51.810;4.712;2022-09-01T08:21:56;3.83;;;1.98;;
46551;SDS011;32278;51.810;4.712;2022-09-01T08:24:22;5.03;;;1.80;;
46551;SDS011;32278;51.810;4.712;2022-09-01T08:26:47;2.55;;;1.77;;
46551;SDS011;32278;51.810;4.712;2022-09-01T08:29:13;2.22;;;1.63;;
46551;SDS011;32278;51.810;4.712;2022-09-01T08:31:39;4.03;;;1.65;;
46551;SDS011;32278;51.810;4.712;2022-09-01T08:34:04;10.07;;;1.73;;
46551;SDS011;32278;51.810;4.712;2022-09-01T08:36:30;4.70;;;1.65;;
46551;SDS011;32278;51.810;4.712;2022-09-01T08:38:56;5.35;;;1.50;;
46551;SDS011;32278;51.810;4.712;2022-09-01T08:44:28;2.17;;;1.73;;
46551;SDS011;32278;51.810;4.712;2022-09-01T08:47:19;3.63;;;1.48;;
46551;SDS011;32278;51.810;4.712;2022-09-01T08:49:45;6.40;;;2.08;;
46551;SDS011;32278;51.810;4.712;2022-09-01T08:54:44;3.25;;;1.60;;
46551;SDS011;32278;51.810;4.712;2022-09-01T08:57:18;9.27;;;1.85;;
46551;SDS011;32278;51.810;4.712;2022-09-01T08:59:49;3.35;;;1.60;;
46551;SDS011;32278;51.810;4.712;2022-09-01T09:02:34;5.07;;;1.85;;
46551;SDS011;32278;51.810;4.712;2022-09-01T09:05:14;5.35;;;1.80;;
46551;SDS011;32278;51.810;4.712;2022-09-01T09:07:57;1.63;;;1.50;;
46551;SDS011;32278;51.810;4.712;2022-09-01T09:16:24;2.75;;;1.77;;
46551;SDS011;32278;51.810;4.712;2022-09-01T09:21:38;4.57;;;1.52;;
46551;SDS011;32278;51.810;4.712;2022-09-01T09:27:14;7.10;;;2.08;;
46551;SDS011;32278;51.810;4.712;2022-09-01T09:30:04;1.30;;;1.20;;
46551;SDS011;32278;51.810;4.712;2022-09-01T09:32:44;5.25;;;2.15;;
46551;SDS011;32278;51.810;4.712;2022-09-01T09:37:54;3.28;;;1.73;;
46551;SDS011;32278;51.810;4.712;2022-09-01T09:40:24;3.00;;;1.73;;
46551;SDS011;32278;51.810;4.712;2022-09-01T09:45:52;2.58;;;1.70;;
46551;SDS011;32278;51.810;4.712;2022-09-01T09:48:28;3.60;;;1.65;;
46551;SDS011;32278;51.810;4.712;2022-09-01T09:50:55;4.80;;;1.88;;
46551;SDS011;32278;51.810;4.712;2022-09-01T09:53:44;3.78;;;1.30;;
46551;SDS011;32278;51.810;4.712;2022-09-01T09:56:17;8.70;;;1.38;;
46551;SDS011;32278;51.810;4.712;2022-09-01T09:58:50;5.43;;;1.20;;
46551;SDS011;32278;51.810;4.712;2022-09-01T10:03:52;4.32;;;1.67;;
46551;SDS011;32278;51.810;4.712;2022-09-01T10:08:59;5.35;;;1.48;;
46551;SDS011;32278;51.810;4.712;2022-09-01T10:11:29;4.72;;;1.73;;
46551;SDS011;32278;51.810;4.712;2022-09-01T10:13:58;1.73;;;1.27;;
46551;SDS011;32278;51.810;4.712;2022-09-01T10:16:25;5.38;;;1.50;;
46551;SDS011;32278;51.810;4.712;2022-09-01T10:18:57;2.15;;;1.10;;
46551;SDS011;32278;51.810;4.712;2022-09-01T10:21:34;1.85;;;1.00;;
46551;SDS011;32278;51.810;4.712;2022-09-01T10:27:00;4.05;;;1.05;;
46551;SDS011;32278;51.810;4.712;2022-09-01T10:29:30;2.28;;;1.42;;
46551;SDS011;32278;51.810;4.712;2022-09-01T10:32:00;2.50;;;1.17;;
46551;SDS011;32278;51.810;4.712;2022-09-01T10:34:32;1.38;;;1.20;;
46551;SDS011;32278;51.810;4.712;2022-09-01T10:37:01;5.28;;;1.00;;
46551;SDS011;32278;51.810;4.712;2022-09-01T10:39:29;3.08;;;1.35;;
46551;SDS011;32278;51.810;4.712;2022-09-01T10:41:55;3.03;;;0.88;;
46551;SDS011;32278;51.810;4.712;2022-09-01T10:44:24;3.38;;;1.27;;
46551;SDS011;32278;51.810;4.712;2022-09-01T10:46:55;2.92;;;1.60;;
46551;SDS011;32278;51.810;4.712;2022-09-01T10:51:51;1.73;;;0.90;;
46551;SDS011;32278;51.810;4.712;2022-09-01T10:54:47;3.75;;;1.23;;
46551;SDS011;32278;51.810;4.712;2022-09-01T11:11:01;3.75;;;1.02;;
46551;SDS011;32278;51.810;4.712;2022-09-01T11:13:50;4.22;;;0.70;;
46551;SDS011;32278;51.810;4.712;2022-09-01T11:16:35;2.33;;;1.00;;
46551;SDS011;32278;51.810;4.712;2022-09-01T11:22:07;1.17;;;0.90;;
46551;SDS011;32278;51.810;4.712;2022-09-01T11:30:33;2.67;;;0.80;;
46551;SDS011;32278;51.810;4.712;2022-09-01T11:33:24;1.30;;;1.00;;
46551;SDS011;32278;51.810;4.712;2022-09-01T11:36:25;1.38;;;0.80;;
46551;SDS011;32278;51.810;4.712;2022-09-01T11:41:53;2.30;;;1.13;;
46551;SDS011;32278;51.810;4.712;2022-09-01T11:47:24;2.25;;;1.17;;
46551;SDS011;32278;51.810;4.712;2022-09-01T11:52:22;0.82;;;0.70;;
46551;SDS011;32278;51.810;4.712;2022-09-01T11:54:50;1.25;;;1.15;;
46551;SDS011;32278;51.810;4.712;2022-09-01T11:59:56;3.33;;;1.10;;
46551;SDS011;32278;51.810;4.712;2022-09-01T12:02:26;4.03;;;0.75;;
46551;SDS011;32278;51.810;4.712;2022-09-01T12:04:55;1.83;;;0.77;;
46551;SDS011;32278;51.810;4.712;2022-09-01T12:07:43;1.75;;;0.90;;
46551;SDS011;32278;51.810;4.712;2022-09-01T12:10:29;5.18;;;0.90;;
46551;SDS011;32278;51.810;4.712;2022-09-01T12:13:02;1.17;;;0.80;;
46551;SDS011;32278;51.810;4.712;2022-09-01T12:15:33;2.15;;;0.80;;
46551;SDS011;32278;51.810;4.712;2022-09-01T12:18:12;2.25;;;0.75;;
46551;SDS011;32278;51.810;4.712;2022-09-01T12:20:43;4.75;;;1.48;;
46551;SDS011;32278;51.810;4.712;2022-09-01T12:25:52;2.83;;;0.85;;
46551;SDS011;32278;51.810;4.712;2022-09-01T12:28:21;2.60;;;0.70;;
46551;SDS011;32278;51.810;4.712;2022-09-01T12:30:48;1.77;;;1.00;;
46551;SDS011;32278;51.810;4.712;2022-09-01T12:33:16;1.00;;;0.80;;
46551;SDS011;32278;51.810;4.712;2022-09-01T12:35:42;2.20;;;0.80;;
46551;SDS011;32278;51.810;4.712;2022-09-01T12:38:42;2.75;;;0.70;;
46551;SDS011;32278;51.810;4.712;2022-09-01T12:41:01;2.42;;;0.90;;
46551;SDS011;32278;51.810;4.712;2022-09-01T12:45:56;0.98;;;0.77;;
46551;SDS011;32278;51.810;4.712;2022-09-01T12:48:25;0.85;;;0.82;;
46551;SDS011;32278;51.810;4.712;2022-09-01T12:51:02;1.58;;;0.95;;
46551;SDS011;32278;51.810;4.712;2022-09-01T12:53:38;4.53;;;0.90;;
46551;SDS011;32278;51.810;4.712;2022-09-01T12:56:05;4.13;;;0.77;;
46551;SDS011;32278;51.810;4.712;2022-09-01T12:58:41;3.60;;;0.77;;
46551;SDS011;32278;51.810;4.712;2022-09-01T13:04:05;1.75;;;0.80;;
46551;SDS011;32278;51.810;4.712;2022-09-01T13:06:32;2.83;;;1.00;;
46551;SDS011;32278;51.810;4.712;2022-09-01T13:08:57;3.83;;;1.08;;
46551;SDS011;32278;51.810;4.712;2022-09-01T13:11:23;2.65;;;1.10;;
46551;SDS011;32278;51.810;4.712;2022-09-01T13:13:48;1.38;;;1.08;;
46551;SDS011;32278;51.810;4.712;2022-09-01T13:16:14;1.55;;;0.77;;
46551;SDS011;32278;51.810;4.712;2022-09-01T13:18:40;2.67;;;0.70;;
46551;SDS011;32278;51.810;4.712;2022-09-01T13:21:07;0.70;;;0.70;;
46551;SDS011;32278;51.810;4.712;2022-09-01T13:23:32;1.77;;;0.75;;
46551;SDS011;32278;51.810;4.712;2022-09-01T13:25:58;4.57;;;0.60;;
46551;SDS011;32278;51.810;4.712;2022-09-01T13:28:24;1.08;;;0.80;;
46551;SDS011;32278;51.810;4.712;2022-09-01T13:30:57;3.30;;;1.08;;
46551;SDS011;32278;51.810;4.712;2022-09-01T13:33:25;0.75;;;0.50;;
46551;SDS011;32278;51.810;4.712;2022-09-01T13:35:52;0.98;;;0.60;;
46551;SDS011;32278;51.810;4.712;2022-09-01T13:38:18;2.85;;;1.02;;
46551;SDS011;32278;51.810;4.712;2022-09-01T13:40:45;3.47;;;0.82;;
46551;SDS011;32278;51.810;4.712;2022-09-01T13:43:12;0.88;;;0.60;;
46551;SDS011;32278;51.810;4.712;2022-09-01T13:45:39;0.65;;;0.50;;
46551;SDS011;32278;51.810;4.712;2022-09-01T13:48:05;2.13;;;0.70;;
46551;SDS011;32278;51.810;4.712;2022-09-01T13:50:32;1.10;;;0.70;;
46551;SDS011;32278;51.810;4.712;2022-09-01T13:52:57;0.82;;;0.60;;
46551;SDS011;32278;51.810;4.712;2022-09-01T13:55:25;2.33;;;0.63;;
46551;SDS011;32278;51.810;4.712;2022-09-01T13:57:56;1.23;;;0.77;;
46551;SDS011;32278;51.810;4.712;2022-09-01T14:00:23;1.88;;;0.43;;
46551;SDS011;32278;51.810;4.712;2022-09-01T14:02:53;1.70;;;0.68;;
46551;SDS011;32278;51.810;4.712;2022-09-01T14:05:25;2.83;;;0.70;;
46551;SDS011;32278;51.810;4.712;2022-09-01T14:07:53;8.00;;;1.20;;
46551;SDS011;32278;51.810;4.712;2022-09-01T14:10:19;1.25;;;0.50;;
46551;SDS011;32278;51.810;4.712;2022-09-01T14:12:46;1.40;;;0.70;;
46551;SDS011;32278;51.810;4.712;2022-09-01T14:15:13;5.90;;;0.52;;
46551;SDS011;32278;51.810;4.712;2022-09-01T14:17:41;0.85;;;0.65;;
46551;SDS011;32278;51.810;4.712;2022-09-01T14:20:08;1.42;;;0.63;;
46551;SDS011;32278;51.810;4.712;2022-09-01T14:22:37;0.73;;;0.50;;
46551;SDS011;32278;51.810;4.712;2022-09-01T14:25:04;1.05;;;0.68;;
46551;SDS011;32278;51.810;4.712;2022-09-01T14:27:31;2.03;;;0.50;;
46551;SDS011;32278;51.810;4.712;2022-09-01T14:29:57;1.83;;;0.40;;
46551;SDS011;32278;51.810;4.712;2022-09-01T14:32:23;1.33;;;0.65;;
46551;SDS011;32278;51.810;4.712;2022-09-01T14:34:51;1.67;;;0.50;;
46551;SDS011;32278;51.810;4.712;2022-09-01T14:37:17;2.38;;;0.50;;
46551;SDS011;32278;51.810;4.712;2022-09-01T14:39:48;2.95;;;0.40;;
46551;SDS011;32278;51.810;4.712;2022-09-01T14:42:22;3.90;;;1.33;;
46551;SDS011;32278;51.810;4.712;2022-09-01T14:44:53;5.57;;;0.75;;
46551;SDS011;32278;51.810;4.712;2022-09-01T14:47:19;2.28;;;1.08;;
46551;SDS011;32278;51.810;4.712;2022-09-01T14:49:46;0.70;;;0.40;;
46551;SDS011;32278;51.810;4.712;2022-09-01T14:52:12;1.17;;;0.35;;
46551;SDS011;32278;51.810;4.712;2022-09-01T14:54:39;1.40;;;0.80;;
46551;SDS011;32278;51.810;4.712;2022-09-01T14:57:06;2.60;;;0.63;;
46551;SDS011;32278;51.810;4.712;2022-09-01T14:59:32;1.85;;;0.70;;
46551;SDS011;32278;51.810;4.712;2022-09-01T15:01:58;0.80;;;0.63;;
46551;SDS011;32278;51.810;4.712;2022-09-01T15:04:24;1.38;;;0.70;;
46551;SDS011;32278;51.810;4.712;2022-09-01T15:06:51;1.08;;;0.60;;
46551;SDS011;32278;51.810;4.712;2022-09-01T15:09:17;3.70;;;0.68;;
46551;SDS011;32278;51.810;4.712;2022-09-01T15:11:43;5.30;;;1.38;;
46551;SDS011;32278;51.810;4.712;2022-09-01T15:14:09;2.50;;;0.60;;
46551;SDS011;32278;51.810;4.712;2022-09-01T15:16:35;1.85;;;0.45;;
46551;SDS011;32278;51.810;4.712;2022-09-01T15:19:05;0.90;;;0.52;;
46551;SDS011;32278;51.810;4.712;2022-09-01T15:21:33;3.15;;;0.52;;
46551;SDS011;32278;51.810;4.712;2022-09-01T15:23:59;1.20;;;0.50;;
46551;SDS011;32278;51.810;4.712;2022-09-01T15:26:26;0.88;;;0.70;;
46551;SDS011;32278;51.810;4.712;2022-09-01T15:28:52;4.07;;;0.80;;
46551;SDS011;32278;51.810;4.712;2022-09-01T15:31:18;1.40;;;0.60;;
46551;SDS011;32278;51.810;4.712;2022-09-01T15:33:46;3.05;;;0.52;;
46551;SDS011;32278;51.810;4.712;2022-09-01T15:36:17;2.90;;;0.77;;
46551;SDS011;32278;51.810;4.712;2022-09-01T15:38:44;1.52;;;0.65;;
46551;SDS011;32278;51.810;4.712;2022-09-01T15:43:43;1.60;;;0.70;;
46551;SDS011;32278;51.810;4.712;2022-09-01T15:46:09;1.83;;;0.60;;
46551;SDS011;32278;51.810;4.712;2022-09-01T15:48:36;4.20;;;0.82;;
46551;SDS011;32278;51.810;4.712;2022-09-01T15:51:12;5.25;;;0.63;;
46551;SDS011;32278;51.810;4.712;2022-09-01T15:53:51;2.92;;;0.60;;
46551;SDS011;32278;51.810;4.712;2022-09-01T15:56:18;4.57;;;0.85;;
46551;SDS011;32278;51.810;4.712;2022-09-01T15:58:46;3.10;;;0.80;;
46551;SDS011;32278;51.810;4.712;2022-09-01T16:01:13;1.88;;;1.00;;
46551;SDS011;32278;51.810;4.712;2022-09-01T16:03:39;1.85;;;0.80;;
46551;SDS011;32278;51.810;4.712;2022-09-01T16:06:05;2.10;;;0.73;;
46551;SDS011;32278;51.810;4.712;2022-09-01T16:08:31;4.13;;;0.80;;
46551;SDS011;32278;51.810;4.712;2022-09-01T16:10:58;3.30;;;0.52;;
46551;SDS011;32278;51.810;4.712;2022-09-01T16:13:24;3.63;;;1.08;;
46551;SDS011;32278;51.810;4.712;2022-09-01T16:24:31;0.57;;;0.40;;
46551;SDS011;32278;51.810;4.712;2022-09-01T16:27:02;2.05;;;0.50;;
46551;SDS011;32278;51.810;4.712;2022-09-01T16:29:36;4.72;;;0.60;;
46551;SDS011;32278;51.810;4.712;2022-09-01T16:32:09;2.05;;;0.50;;